sensor_id;sensor_type;location;lat;lon;timestamp;P1;durP1;ratioP1;P2;durP2;ratioP2
27225;SDS011;14732;51.074;3.788;2023-05-29T00:02:14;10.63;;;5.93;;
27225;SDS011;14732;51.074;3.788;2023-05-29T00:04:40;16.75;;;6.47;;
27225;SDS011;14732;51.074;3.788;2023-05-29T00:07:05;18.40;;;6.47;;
27225;SDS011;14732;51.074;3.788;2023-05-29T00:09:31;13.73;;;6.55;;
27225;SDS011;14732;51.074;3.788;2023-05-29T00:11:57;15.30;;;6.38;;
27225;SDS011;14732;51.074;3.788;2023-05-29T00:14:22;13.80;;;5.63;;
27225;SDS011;14732;51.074;3.788;2023-05-29T00:16:49;11.85;;;6.18;;
27225;SDS011;14732;51.074;3.788;2023-05-29T00:19:15;12.35;;;5.57;;
27225;SDS011;14732;51.074;3.788;2023-05-29T00:21:42;9.70;;;5.05;;
27225;SDS011;14732;51.074;3.788;2023-05-29T00:24:08;13.05;;;5.18;;
27225;SDS011;14732;51.074;3.788;2023-05-29T00:26:34;13.77;;;5.07;;
27225;SDS011;14732;51.074;3.788;2023-05-29T00:29:00;15.23;;;4.75;;
27225;SDS011;14732;51.074;3.788;2023-05-29T00:31:26;14.18;;;4.78;;
27225;SDS011;14732;51.074;3.788;2023-05-29T00:33:53;12.18;;;4.55;;
27225;SDS011;14732;51.074;3.788;2023-05-29T00:36:18;15.32;;;5.40;;
27225;SDS011;14732;51.074;3.788;2023-05-29T00:38:44;11.27;;;5.07;;
27225;SDS011;14732;51.074;3.788;2023-05-29T00:41:14;13.23;;;5.85;;
27225;SDS011;14732;51.074;3.788;2023-05-29T00:43:43;13.95;;;6.05;;
27225;SDS011;14732;51.074;3.788;2023-05-29T00:46:12;12.38;;;5.78;;
27225;SDS011;14732;51.074;3.788;2023-05-29T00:48:38;11.43;;;5.53;;
27225;SDS011;14732;51.074;3.788;2023-05-29T00:51:06;17.13;;;5.50;;
27225;SDS011;14732;51.074;3.788;2023-05-29T00:53:33;10.70;;;5.15;;
27225;SDS011;14732;51.074;3.788;2023-05-29T00:55:59;12.35;;;5.32;;
27225;SDS011;14732;51.074;3.788;2023-05-29T00:58:25;15.70;;;5.28;;
27225;SDS011;14732;51.074;3.788;2023-05-29T01:00:51;15.07;;;4.55;;
27225;SDS011;14732;51.074;3.788;2023-05-29T01:03:18;16.70;;;5.00;;
27225;SDS011;14732;51.074;3.788;2023-05-29T01:05:45;11.55;;;3.58;;
27225;SDS011;14732;51.074;3.788;2023-05-29T01:08:14;13.93;;;3.83;;
27225;SDS011;14732;51.074;3.788;2023-05-29T01:10:39;11.40;;;3.22;;
27225;SDS011;14732;51.074;3.788;2023-05-29T01:13:16;10.10;;;2.40;;
27225;SDS011;14732;51.074;3.788;2023-05-29T01:16:06;11.13;;;2.40;;
27225;SDS011;14732;51.074;3.788;2023-05-29T01:26:57;8.52;;;1.92;;
27225;SDS011;14732;51.074;3.788;2023-05-29T01:29:26;8.88;;;2.17;;
27225;SDS011;14732;51.074;3.788;2023-05-29T01:31:56;10.60;;;2.30;;
27225;SDS011;14732;51.074;3.788;2023-05-29T01:34:23;13.60;;;2.42;;
27225;SDS011;14732;51.074;3.788;2023-05-29T01:36:48;10.90;;;2.28;;
27225;SDS011;14732;51.074;3.788;2023-05-29T01:39:14;14.48;;;2.72;;
27225;SDS011;14732;51.074;3.788;2023-05-29T01:41:41;16.05;;;2.20;;
27225;SDS011;14732;51.074;3.788;2023-05-29T01:44:09;10.48;;;3.00;;
27225;SDS011;14732;51.074;3.788;2023-05-29T01:46:36;11.15;;;2.20;;
27225;SDS011;14732;51.074;3.788;2023-05-29T01:49:03;12.43;;;2.80;;
27225;SDS011;14732;51.074;3.788;2023-05-29T01:51:30;14.75;;;2.80;;
27225;SDS011;14732;51.074;3.788;2023-05-29T01:53:56;11.45;;;2.30;;
27225;SDS011;14732;51.074;3.788;2023-05-29T01:56:23;10.30;;;2.33;;
27225;SDS011;14732;51.074;3.788;2023-05-29T01:58:52;9.73;;;1.98;;
27225;SDS011;14732;51.074;3.788;2023-05-29T02:03:47;9.82;;;1.80;;
27225;SDS011;14732;51.074;3.788;2023-05-29T02:06:13;13.95;;;2.67;;
27225;SDS011;14732;51.074;3.788;2023-05-29T02:08:39;8.10;;;2.08;;
27225;SDS011;14732;51.074;3.788;2023-05-29T02:11:04;13.63;;;2.50;;
27225;SDS011;14732;51.074;3.788;2023-05-29T02:13:31;12.23;;;1.98;;
27225;SDS011;14732;51.074;3.788;2023-05-29T02:15:56;9.25;;;1.95;;
27225;SDS011;14732;51.074;3.788;2023-05-29T02:18:22;12.60;;;2.78;;
27225;SDS011;14732;51.074;3.788;2023-05-29T02:20:48;11.90;;;2.00;;
27225;SDS011;14732;51.074;3.788;2023-05-29T02:23:14;8.57;;;2.47;;
27225;SDS011;14732;51.074;3.788;2023-05-29T02:25:40;9.93;;;2.17;;
27225;SDS011;14732;51.074;3.788;2023-05-29T02:28:06;10.95;;;2.05;;
27225;SDS011;14732;51.074;3.788;2023-05-29T02:30:32;9.30;;;2.75;;
27225;SDS011;14732;51.074;3.788;2023-05-29T02:32:59;6.63;;;1.88;;
27225;SDS011;14732;51.074;3.788;2023-05-29T02:35:25;15.57;;;2.28;;
27225;SDS011;14732;51.074;3.788;2023-05-29T02:37:51;13.40;;;2.10;;
27225;SDS011;14732;51.074;3.788;2023-05-29T02:40:20;11.70;;;1.98;;
27225;SDS011;14732;51.074;3.788;2023-05-29T02:42:46;10.60;;;2.10;;
27225;SDS011;14732;51.074;3.788;2023-05-29T02:45:12;7.45;;;1.80;;
27225;SDS011;14732;51.074;3.788;2023-05-29T02:47:38;7.30;;;2.30;;
27225;SDS011;14732;51.074;3.788;2023-05-29T02:50:04;5.97;;;2.10;;
27225;SDS011;14732;51.074;3.788;2023-05-29T02:52:31;8.35;;;1.95;;
27225;SDS011;14732;51.074;3.788;2023-05-29T02:54:57;7.07;;;2.25;;
27225;SDS011;14732;51.074;3.788;2023-05-29T02:57:24;10.43;;;1.77;;
27225;SDS011;14732;51.074;3.788;2023-05-29T02:59:50;11.25;;;2.20;;
27225;SDS011;14732;51.074;3.788;2023-05-29T03:02:16;7.97;;;1.90;;
27225;SDS011;14732;51.074;3.788;2023-05-29T03:04:42;9.07;;;2.17;;
27225;SDS011;14732;51.074;3.788;2023-05-29T03:07:09;9.75;;;2.22;;
27225;SDS011;14732;51.074;3.788;2023-05-29T03:09:35;8.30;;;2.00;;
27225;SDS011;14732;51.074;3.788;2023-05-29T03:12:01;8.05;;;1.88;;
27225;SDS011;14732;51.074;3.788;2023-05-29T03:14:28;12.27;;;1.90;;
27225;SDS011;14732;51.074;3.788;2023-05-29T03:16:53;12.32;;;2.13;;
27225;SDS011;14732;51.074;3.788;2023-05-29T03:19:20;7.90;;;1.83;;
27225;SDS011;14732;51.074;3.788;2023-05-29T03:21:45;8.45;;;2.05;;
27225;SDS011;14732;51.074;3.788;2023-05-29T03:24:11;6.47;;;1.83;;
27225;SDS011;14732;51.074;3.788;2023-05-29T03:26:40;10.07;;;2.15;;
27225;SDS011;14732;51.074;3.788;2023-05-29T03:29:05;8.75;;;2.22;;
27225;SDS011;14732;51.074;3.788;2023-05-29T03:31:31;14.02;;;2.55;;
27225;SDS011;14732;51.074;3.788;2023-05-29T03:33:57;11.00;;;2.15;;
27225;SDS011;14732;51.074;3.788;2023-05-29T03:36:24;14.00;;;2.72;;
27225;SDS011;14732;51.074;3.788;2023-05-29T03:38:49;15.90;;;3.13;;
27225;SDS011;14732;51.074;3.788;2023-05-29T03:41:15;11.48;;;2.10;;
27225;SDS011;14732;51.074;3.788;2023-05-29T03:43:41;12.00;;;2.35;;
27225;SDS011;14732;51.074;3.788;2023-05-29T03:46:06;14.05;;;2.70;;
27225;SDS011;14732;51.074;3.788;2023-05-29T03:48:32;16.27;;;2.28;;
27225;SDS011;14732;51.074;3.788;2023-05-29T03:50:58;13.30;;;2.33;;
27225;SDS011;14732;51.074;3.788;2023-05-29T03:53:23;13.57;;;2.30;;
27225;SDS011;14732;51.074;3.788;2023-05-29T03:55:49;13.68;;;2.42;;
27225;SDS011;14732;51.074;3.788;2023-05-29T03:58:14;10.00;;;2.00;;
27225;SDS011;14732;51.074;3.788;2023-05-29T04:00:40;12.77;;;2.13;;
27225;SDS011;14732;51.074;3.788;2023-05-29T04:03:06;13.13;;;2.30;;
27225;SDS011;14732;51.074;3.788;2023-05-29T04:05:33;14.70;;;2.00;;
27225;SDS011;14732;51.074;3.788;2023-05-29T04:07:59;11.63;;;2.28;;
27225;SDS011;14732;51.074;3.788;2023-05-29T04:10:26;11.40;;;2.47;;
27225;SDS011;14732;51.074;3.788;2023-05-29T04:12:51;12.85;;;2.20;;
27225;SDS011;14732;51.074;3.788;2023-05-29T04:15:17;12.60;;;2.35;;
27225;SDS011;14732;51.074;3.788;2023-05-29T04:17:43;9.82;;;2.28;;
27225;SDS011;14732;51.074;3.788;2023-05-29T04:20:09;14.38;;;2.22;;
27225;SDS011;14732;51.074;3.788;2023-05-29T04:22:35;11.35;;;2.00;;
27225;SDS011;14732;51.074;3.788;2023-05-29T04:25:01;15.43;;;2.40;;
27225;SDS011;14732;51.074;3.788;2023-05-29T04:27:28;12.73;;;2.20;;
27225;SDS011;14732;51.074;3.788;2023-05-29T04:30:02;10.15;;;2.13;;
27225;SDS011;14732;51.074;3.788;2023-05-29T04:32:31;16.95;;;2.50;;
27225;SDS011;14732;51.074;3.788;2023-05-29T04:34:58;15.00;;;2.60;;
27225;SDS011;14732;51.074;3.788;2023-05-29T04:37:27;12.55;;;2.00;;
27225;SDS011;14732;51.074;3.788;2023-05-29T04:40:01;17.65;;;2.72;;
27225;SDS011;14732;51.074;3.788;2023-05-29T04:42:33;12.27;;;2.00;;
27225;SDS011;14732;51.074;3.788;2023-05-29T04:44:58;16.58;;;2.65;;
27225;SDS011;14732;51.074;3.788;2023-05-29T04:47:25;13.95;;;2.10;;
27225;SDS011;14732;51.074;3.788;2023-05-29T04:49:51;10.90;;;1.83;;
27225;SDS011;14732;51.074;3.788;2023-05-29T04:52:18;13.75;;;2.20;;
27225;SDS011;14732;51.074;3.788;2023-05-29T04:54:46;12.93;;;2.25;;
27225;SDS011;14732;51.074;3.788;2023-05-29T04:57:11;11.38;;;2.08;;
27225;SDS011;14732;51.074;3.788;2023-05-29T04:59:37;14.57;;;2.33;;
27225;SDS011;14732;51.074;3.788;2023-05-29T05:02:03;11.93;;;2.33;;
27225;SDS011;14732;51.074;3.788;2023-05-29T05:04:29;12.15;;;2.05;;
27225;SDS011;14732;51.074;3.788;2023-05-29T05:06:55;12.40;;;2.30;;
27225;SDS011;14732;51.074;3.788;2023-05-29T05:09:20;13.98;;;2.05;;
27225;SDS011;14732;51.074;3.788;2023-05-29T05:11:46;9.88;;;1.98;;
27225;SDS011;14732;51.074;3.788;2023-05-29T05:14:12;6.10;;;1.27;;
27225;SDS011;14732;51.074;3.788;2023-05-29T05:16:37;17.40;;;2.17;;
27225;SDS011;14732;51.074;3.788;2023-05-29T05:19:03;15.75;;;1.85;;
27225;SDS011;14732;51.074;3.788;2023-05-29T05:21:28;8.07;;;1.70;;
27225;SDS011;14732;51.074;3.788;2023-05-29T05:23:57;10.03;;;1.93;;
27225;SDS011;14732;51.074;3.788;2023-05-29T05:26:23;11.90;;;2.20;;
27225;SDS011;14732;51.074;3.788;2023-05-29T05:28:50;11.88;;;2.17;;
27225;SDS011;14732;51.074;3.788;2023-05-29T05:31:16;8.98;;;2.42;;
27225;SDS011;14732;51.074;3.788;2023-05-29T05:33:43;12.98;;;2.00;;
27225;SDS011;14732;51.074;3.788;2023-05-29T05:36:08;10.60;;;1.98;;
27225;SDS011;14732;51.074;3.788;2023-05-29T05:38:34;11.85;;;1.98;;
27225;SDS011;14732;51.074;3.788;2023-05-29T05:40:59;9.68;;;1.80;;
27225;SDS011;14732;51.074;3.788;2023-05-29T05:43:25;7.88;;;2.08;;
27225;SDS011;14732;51.074;3.788;2023-05-29T05:45:52;11.20;;;2.53;;
27225;SDS011;14732;51.074;3.788;2023-05-29T05:48:18;11.55;;;1.73;;
27225;SDS011;14732;51.074;3.788;2023-05-29T05:50:43;12.65;;;2.20;;
27225;SDS011;14732;51.074;3.788;2023-05-29T05:53:09;14.05;;;2.70;;
27225;SDS011;14732;51.074;3.788;2023-05-29T05:55:34;8.88;;;1.90;;
27225;SDS011;14732;51.074;3.788;2023-05-29T05:58:01;9.93;;;1.88;;
27225;SDS011;14732;51.074;3.788;2023-05-29T06:00:26;9.57;;;2.40;;
27225;SDS011;14732;51.074;3.788;2023-05-29T06:02:53;8.60;;;2.10;;
27225;SDS011;14732;51.074;3.788;2023-05-29T06:05:18;6.88;;;1.67;;
27225;SDS011;14732;51.074;3.788;2023-05-29T06:07:44;9.90;;;2.13;;
27225;SDS011;14732;51.074;3.788;2023-05-29T06:10:10;8.95;;;1.98;;
27225;SDS011;14732;51.074;3.788;2023-05-29T06:12:36;7.35;;;1.80;;
27225;SDS011;14732;51.074;3.788;2023-05-29T06:15:02;11.13;;;2.20;;
27225;SDS011;14732;51.074;3.788;2023-05-29T06:17:29;9.48;;;2.00;;
27225;SDS011;14732;51.074;3.788;2023-05-29T06:19:55;7.75;;;1.77;;
27225;SDS011;14732;51.074;3.788;2023-05-29T06:22:20;12.10;;;2.08;;
27225;SDS011;14732;51.074;3.788;2023-05-29T06:24:46;8.77;;;1.77;;
27225;SDS011;14732;51.074;3.788;2023-05-29T06:27:12;7.43;;;1.98;;
27225;SDS011;14732;51.074;3.788;2023-05-29T06:29:37;9.45;;;1.90;;
27225;SDS011;14732;51.074;3.788;2023-05-29T06:32:03;5.43;;;1.50;;
27225;SDS011;14732;51.074;3.788;2023-05-29T06:34:29;7.75;;;2.20;;
27225;SDS011;14732;51.074;3.788;2023-05-29T06:36:55;8.50;;;2.08;;
27225;SDS011;14732;51.074;3.788;2023-05-29T06:39:21;7.03;;;1.60;;
27225;SDS011;14732;51.074;3.788;2023-05-29T06:41:47;7.07;;;1.77;;
27225;SDS011;14732;51.074;3.788;2023-05-29T06:44:12;13.50;;;2.10;;
27225;SDS011;14732;51.074;3.788;2023-05-29T06:46:38;6.50;;;1.70;;
27225;SDS011;14732;51.074;3.788;2023-05-29T06:49:03;9.27;;;2.08;;
27225;SDS011;14732;51.074;3.788;2023-05-29T06:51:29;12.85;;;1.75;;
27225;SDS011;14732;51.074;3.788;2023-05-29T06:53:55;14.07;;;2.15;;
27225;SDS011;14732;51.074;3.788;2023-05-29T06:56:21;8.75;;;2.00;;
27225;SDS011;14732;51.074;3.788;2023-05-29T06:58:47;7.80;;;1.52;;
27225;SDS011;14732;51.074;3.788;2023-05-29T07:01:12;7.43;;;1.48;;
27225;SDS011;14732;51.074;3.788;2023-05-29T07:03:38;8.95;;;1.58;;
27225;SDS011;14732;51.074;3.788;2023-05-29T07:06:04;11.02;;;1.73;;
27225;SDS011;14732;51.074;3.788;2023-05-29T07:08:31;5.93;;;1.52;;
27225;SDS011;14732;51.074;3.788;2023-05-29T07:10:57;10.60;;;1.90;;
27225;SDS011;14732;51.074;3.788;2023-05-29T07:13:23;10.93;;;1.70;;
27225;SDS011;14732;51.074;3.788;2023-05-29T07:15:51;7.07;;;1.45;;
27225;SDS011;14732;51.074;3.788;2023-05-29T07:18:16;7.90;;;1.50;;
27225;SDS011;14732;51.074;3.788;2023-05-29T07:20:42;11.00;;;1.73;;
27225;SDS011;14732;51.074;3.788;2023-05-29T07:23:08;9.60;;;1.63;;
27225;SDS011;14732;51.074;3.788;2023-05-29T07:25:33;8.88;;;1.50;;
27225;SDS011;14732;51.074;3.788;2023-05-29T07:27:59;6.60;;;1.73;;
27225;SDS011;14732;51.074;3.788;2023-05-29T07:30:25;8.40;;;1.52;;
27225;SDS011;14732;51.074;3.788;2023-05-29T07:32:50;5.97;;;1.60;;
27225;SDS011;14732;51.074;3.788;2023-05-29T07:35:16;6.47;;;1.48;;
27225;SDS011;14732;51.074;3.788;2023-05-29T07:37:41;8.85;;;1.73;;
27225;SDS011;14732;51.074;3.788;2023-05-29T07:40:07;9.10;;;1.98;;
27225;SDS011;14732;51.074;3.788;2023-05-29T07:42:34;6.70;;;1.58;;
27225;SDS011;14732;51.074;3.788;2023-05-29T07:45:01;8.93;;;1.70;;
27225;SDS011;14732;51.074;3.788;2023-05-29T07:47:26;7.10;;;1.65;;
27225;SDS011;14732;51.074;3.788;2023-05-29T07:49:52;8.13;;;1.60;;
27225;SDS011;14732;51.074;3.788;2023-05-29T07:52:18;8.77;;;1.55;;
27225;SDS011;14732;51.074;3.788;2023-05-29T07:54:43;7.63;;;1.90;;
27225;SDS011;14732;51.074;3.788;2023-05-29T07:57:09;11.13;;;1.63;;
27225;SDS011;14732;51.074;3.788;2023-05-29T07:59:41;9.55;;;2.10;;
27225;SDS011;14732;51.074;3.788;2023-05-29T08:02:07;10.02;;;1.60;;
27225;SDS011;14732;51.074;3.788;2023-05-29T08:04:33;5.70;;;1.50;;
27225;SDS011;14732;51.074;3.788;2023-05-29T08:07:00;11.05;;;1.90;;
27225;SDS011;14732;51.074;3.788;2023-05-29T08:09:26;6.63;;;1.77;;
27225;SDS011;14732;51.074;3.788;2023-05-29T08:11:51;15.32;;;2.80;;
27225;SDS011;14732;51.074;3.788;2023-05-29T08:14:17;6.50;;;1.42;;
27225;SDS011;14732;51.074;3.788;2023-05-29T08:16:43;8.77;;;1.58;;
27225;SDS011;14732;51.074;3.788;2023-05-29T08:19:08;10.18;;;1.70;;
27225;SDS011;14732;51.074;3.788;2023-05-29T08:21:34;11.02;;;2.10;;
27225;SDS011;14732;51.074;3.788;2023-05-29T08:24:03;6.60;;;1.70;;
27225;SDS011;14732;51.074;3.788;2023-05-29T08:26:32;11.67;;;1.83;;
27225;SDS011;14732;51.074;3.788;2023-05-29T08:28:59;9.70;;;1.88;;
27225;SDS011;14732;51.074;3.788;2023-05-29T08:31:25;8.30;;;1.60;;
27225;SDS011;14732;51.074;3.788;2023-05-29T08:33:51;10.48;;;1.80;;
27225;SDS011;14732;51.074;3.788;2023-05-29T08:36:17;9.45;;;2.05;;
27225;SDS011;14732;51.074;3.788;2023-05-29T08:38:43;6.00;;;1.50;;
27225;SDS011;14732;51.074;3.788;2023-05-29T08:41:08;8.82;;;1.80;;
27225;SDS011;14732;51.074;3.788;2023-05-29T08:43:37;11.20;;;1.80;;
27225;SDS011;14732;51.074;3.788;2023-05-29T08:46:05;9.52;;;1.83;;
27225;SDS011;14732;51.074;3.788;2023-05-29T08:48:32;7.22;;;2.10;;
27225;SDS011;14732;51.074;3.788;2023-05-29T08:51:01;7.90;;;2.30;;
27225;SDS011;14732;51.074;3.788;2023-05-29T08:53:28;7.50;;;1.70;;
27225;SDS011;14732;51.074;3.788;2023-05-29T08:55:56;7.90;;;1.70;;
27225;SDS011;14732;51.074;3.788;2023-05-29T08:58:23;8.18;;;1.90;;
27225;SDS011;14732;51.074;3.788;2023-05-29T09:00:49;9.27;;;1.60;;
27225;SDS011;14732;51.074;3.788;2023-05-29T09:03:16;5.65;;;1.90;;
27225;SDS011;14732;51.074;3.788;2023-05-29T09:05:42;11.10;;;2.00;;
27225;SDS011;14732;51.074;3.788;2023-05-29T09:08:09;8.07;;;1.80;;
27225;SDS011;14732;51.074;3.788;2023-05-29T09:10:37;10.13;;;2.00;;
27225;SDS011;14732;51.074;3.788;2023-05-29T09:13:05;7.82;;;1.70;;
27225;SDS011;14732;51.074;3.788;2023-05-29T09:15:31;10.05;;;1.50;;
27225;SDS011;14732;51.074;3.788;2023-05-29T09:17:57;8.35;;;1.75;;
27225;SDS011;14732;51.074;3.788;2023-05-29T09:20:24;9.13;;;2.03;;
27225;SDS011;14732;51.074;3.788;2023-05-29T09:22:59;9.30;;;2.33;;
27225;SDS011;14732;51.074;3.788;2023-05-29T09:25:29;12.18;;;2.50;;
27225;SDS011;14732;51.074;3.788;2023-05-29T09:28:01;11.23;;;2.53;;
27225;SDS011;14732;51.074;3.788;2023-05-29T09:32:57;10.15;;;1.92;;
27225;SDS011;14732;51.074;3.788;2023-05-29T09:35:25;9.13;;;2.15;;
27225;SDS011;14732;51.074;3.788;2023-05-29T09:37:51;6.70;;;1.60;;
27225;SDS011;14732;51.074;3.788;2023-05-29T09:40:17;9.18;;;1.95;;
27225;SDS011;14732;51.074;3.788;2023-05-29T09:42:43;11.10;;;1.92;;
27225;SDS011;14732;51.074;3.788;2023-05-29T09:45:09;14.20;;;2.30;;
27225;SDS011;14732;51.074;3.788;2023-05-29T09:47:35;11.77;;;2.20;;
27225;SDS011;14732;51.074;3.788;2023-05-29T09:50:01;8.77;;;1.85;;
27225;SDS011;14732;51.074;3.788;2023-05-29T09:52:28;7.75;;;1.80;;
27225;SDS011;14732;51.074;3.788;2023-05-29T09:54:55;11.88;;;2.35;;
27225;SDS011;14732;51.074;3.788;2023-05-29T09:57:22;11.55;;;2.22;;
27225;SDS011;14732;51.074;3.788;2023-05-29T09:59:49;9.18;;;2.22;;
27225;SDS011;14732;51.074;3.788;2023-05-29T10:02:17;11.95;;;2.20;;
27225;SDS011;14732;51.074;3.788;2023-05-29T10:04:44;9.60;;;1.95;;
27225;SDS011;14732;51.074;3.788;2023-05-29T10:07:15;12.20;;;2.45;;
27225;SDS011;14732;51.074;3.788;2023-05-29T10:09:52;11.88;;;2.15;;
27225;SDS011;14732;51.074;3.788;2023-05-29T10:12:25;14.32;;;2.53;;
27225;SDS011;14732;51.074;3.788;2023-05-29T10:14:53;13.10;;;2.13;;
27225;SDS011;14732;51.074;3.788;2023-05-29T10:17:22;11.20;;;2.10;;
27225;SDS011;14732;51.074;3.788;2023-05-29T10:19:53;9.05;;;1.95;;
27225;SDS011;14732;51.074;3.788;2023-05-29T10:22:23;8.25;;;1.88;;
27225;SDS011;14732;51.074;3.788;2023-05-29T10:24:51;10.75;;;2.05;;
27225;SDS011;14732;51.074;3.788;2023-05-29T10:27:17;13.00;;;1.77;;
27225;SDS011;14732;51.074;3.788;2023-05-29T10:29:48;13.43;;;2.35;;
27225;SDS011;14732;51.074;3.788;2023-05-29T10:32:29;12.45;;;2.55;;
27225;SDS011;14732;51.074;3.788;2023-05-29T10:37:54;5.80;;;1.77;;
27225;SDS011;14732;51.074;3.788;2023-05-29T10:40:27;10.82;;;2.13;;
27225;SDS011;14732;51.074;3.788;2023-05-29T10:42:53;12.20;;;2.35;;
27225;SDS011;14732;51.074;3.788;2023-05-29T10:50:41;8.55;;;2.05;;
27225;SDS011;14732;51.074;3.788;2023-05-29T10:53:07;7.15;;;1.88;;
27225;SDS011;14732;51.074;3.788;2023-05-29T10:55:35;10.80;;;2.10;;
27225;SDS011;14732;51.074;3.788;2023-05-29T10:58:06;11.18;;;1.92;;
27225;SDS011;14732;51.074;3.788;2023-05-29T11:00:32;8.13;;;1.88;;
27225;SDS011;14732;51.074;3.788;2023-05-29T11:03:02;10.32;;;1.98;;
27225;SDS011;14732;51.074;3.788;2023-05-29T11:05:29;8.75;;;1.92;;
27225;SDS011;14732;51.074;3.788;2023-05-29T11:07:55;8.52;;;1.98;;
27225;SDS011;14732;51.074;3.788;2023-05-29T11:10:43;11.35;;;2.65;;
27225;SDS011;14732;51.074;3.788;2023-05-29T11:13:31;9.50;;;1.83;;
27225;SDS011;14732;51.074;3.788;2023-05-29T11:18:31;9.80;;;2.03;;
27225;SDS011;14732;51.074;3.788;2023-05-29T11:20:57;6.75;;;1.83;;
27225;SDS011;14732;51.074;3.788;2023-05-29T11:23:31;10.63;;;2.00;;
27225;SDS011;14732;51.074;3.788;2023-05-29T11:25:57;7.70;;;1.70;;
27225;SDS011;14732;51.074;3.788;2023-05-29T11:28:24;7.57;;;1.88;;
27225;SDS011;14732;51.074;3.788;2023-05-29T11:30:52;12.52;;;1.98;;
27225;SDS011;14732;51.074;3.788;2023-05-29T11:33:24;7.97;;;2.15;;
27225;SDS011;14732;51.074;3.788;2023-05-29T11:35:55;12.48;;;2.30;;
27225;SDS011;14732;51.074;3.788;2023-05-29T11:38:24;11.05;;;2.08;;
27225;SDS011;14732;51.074;3.788;2023-05-29T11:40:52;9.23;;;2.10;;
27225;SDS011;14732;51.074;3.788;2023-05-29T11:43:19;10.48;;;1.80;;
27225;SDS011;14732;51.074;3.788;2023-05-29T11:45:45;11.20;;;2.42;;
27225;SDS011;14732;51.074;3.788;2023-05-29T11:48:11;8.90;;;1.70;;
27225;SDS011;14732;51.074;3.788;2023-05-29T11:50:37;12.52;;;2.30;;
27225;SDS011;14732;51.074;3.788;2023-05-29T11:53:05;6.28;;;1.80;;
27225;SDS011;14732;51.074;3.788;2023-05-29T11:55:32;11.00;;;2.17;;
27225;SDS011;14732;51.074;3.788;2023-05-29T11:57:58;6.20;;;1.85;;
27225;SDS011;14732;51.074;3.788;2023-05-29T12:00:25;10.38;;;1.95;;
27225;SDS011;14732;51.074;3.788;2023-05-29T12:02:57;14.73;;;2.33;;
27225;SDS011;14732;51.074;3.788;2023-05-29T12:05:23;10.10;;;1.95;;
27225;SDS011;14732;51.074;3.788;2023-05-29T12:07:54;9.43;;;2.20;;
27225;SDS011;14732;51.074;3.788;2023-05-29T12:10:22;10.25;;;2.45;;
27225;SDS011;14732;51.074;3.788;2023-05-29T12:12:56;10.20;;;2.60;;
27225;SDS011;14732;51.074;3.788;2023-05-29T12:15:23;8.90;;;2.00;;
27225;SDS011;14732;51.074;3.788;2023-05-29T12:17:50;8.07;;;2.08;;
27225;SDS011;14732;51.074;3.788;2023-05-29T12:20:17;9.98;;;2.35;;
27225;SDS011;14732;51.074;3.788;2023-05-29T12:22:43;9.95;;;1.95;;
27225;SDS011;14732;51.074;3.788;2023-05-29T12:25:11;10.82;;;2.63;;
27225;SDS011;14732;51.074;3.788;2023-05-29T12:27:38;7.55;;;2.05;;
27225;SDS011;14732;51.074;3.788;2023-05-29T12:32:40;7.15;;;1.90;;
27225;SDS011;14732;51.074;3.788;2023-05-29T12:35:10;5.25;;;1.75;;
27225;SDS011;14732;51.074;3.788;2023-05-29T12:37:56;7.30;;;2.13;;
27225;SDS011;14732;51.074;3.788;2023-05-29T12:40:27;7.30;;;1.90;;
27225;SDS011;14732;51.074;3.788;2023-05-29T12:43:01;7.00;;;2.28;;
27225;SDS011;14732;51.074;3.788;2023-05-29T12:45:36;6.05;;;1.85;;
27225;SDS011;14732;51.074;3.788;2023-05-29T12:48:02;7.30;;;1.90;;
27225;SDS011;14732;51.074;3.788;2023-05-29T12:50:31;10.30;;;2.08;;
27225;SDS011;14732;51.074;3.788;2023-05-29T12:53:03;7.55;;;2.05;;
27225;SDS011;14732;51.074;3.788;2023-05-29T12:55:30;9.15;;;2.10;;
27225;SDS011;14732;51.074;3.788;2023-05-29T12:58:06;7.57;;;1.92;;
27225;SDS011;14732;51.074;3.788;2023-05-29T13:00:40;6.20;;;1.80;;
27225;SDS011;14732;51.074;3.788;2023-05-29T13:03:08;6.22;;;1.88;;
27225;SDS011;14732;51.074;3.788;2023-05-29T13:05:34;6.75;;;1.65;;
27225;SDS011;14732;51.074;3.788;2023-05-29T13:08:00;6.20;;;1.42;;
27225;SDS011;14732;51.074;3.788;2023-05-29T13:10:26;3.70;;;1.67;;
27225;SDS011;14732;51.074;3.788;2023-05-29T13:12:53;11.50;;;1.70;;
27225;SDS011;14732;51.074;3.788;2023-05-29T13:15:20;6.25;;;1.80;;
27225;SDS011;14732;51.074;3.788;2023-05-29T13:17:47;7.90;;;1.80;;
27225;SDS011;14732;51.074;3.788;2023-05-29T13:20:13;5.65;;;1.45;;
27225;SDS011;14732;51.074;3.788;2023-05-29T13:22:40;8.10;;;1.85;;
27225;SDS011;14732;51.074;3.788;2023-05-29T13:25:08;5.80;;;1.63;;
27225;SDS011;14732;51.074;3.788;2023-05-29T13:27:37;6.80;;;2.03;;
27225;SDS011;14732;51.074;3.788;2023-05-29T13:30:09;6.65;;;1.75;;
27225;SDS011;14732;51.074;3.788;2023-05-29T13:32:35;4.03;;;1.50;;
27225;SDS011;14732;51.074;3.788;2023-05-29T13:35:01;6.65;;;1.60;;
27225;SDS011;14732;51.074;3.788;2023-05-29T13:37:28;4.43;;;1.48;;
27225;SDS011;14732;51.074;3.788;2023-05-29T13:39:54;4.53;;;1.65;;
27225;SDS011;14732;51.074;3.788;2023-05-29T13:42:20;6.45;;;1.98;;
27225;SDS011;14732;51.074;3.788;2023-05-29T13:44:49;8.57;;;1.50;;
27225;SDS011;14732;51.074;3.788;2023-05-29T13:47:15;5.47;;;1.70;;
27225;SDS011;14732;51.074;3.788;2023-05-29T13:49:41;3.38;;;1.33;;
27225;SDS011;14732;51.074;3.788;2023-05-29T13:52:07;7.00;;;1.75;;
27225;SDS011;14732;51.074;3.788;2023-05-29T13:54:33;4.85;;;1.60;;
27225;SDS011;14732;51.074;3.788;2023-05-29T13:57:02;7.93;;;1.90;;
27225;SDS011;14732;51.074;3.788;2023-05-29T13:59:28;5.53;;;1.75;;
27225;SDS011;14732;51.074;3.788;2023-05-29T14:04:23;6.60;;;1.80;;
27225;SDS011;14732;51.074;3.788;2023-05-29T14:06:49;6.97;;;1.75;;
27225;SDS011;14732;51.074;3.788;2023-05-29T14:09:16;5.00;;;1.75;;
27225;SDS011;14732;51.074;3.788;2023-05-29T14:11:42;7.03;;;1.55;;
27225;SDS011;14732;51.074;3.788;2023-05-29T14:14:07;7.40;;;1.88;;
27225;SDS011;14732;51.074;3.788;2023-05-29T14:16:33;6.25;;;1.70;;
27225;SDS011;14732;51.074;3.788;2023-05-29T14:18:59;7.95;;;1.70;;
27225;SDS011;14732;51.074;3.788;2023-05-29T14:21:25;7.82;;;1.98;;
27225;SDS011;14732;51.074;3.788;2023-05-29T14:23:51;7.15;;;1.90;;
27225;SDS011;14732;51.074;3.788;2023-05-29T14:26:16;8.63;;;2.30;;
27225;SDS011;14732;51.074;3.788;2023-05-29T14:28:42;13.73;;;2.10;;
27225;SDS011;14732;51.074;3.788;2023-05-29T14:31:08;8.65;;;2.28;;
27225;SDS011;14732;51.074;3.788;2023-05-29T14:33:34;7.43;;;2.20;;
27225;SDS011;14732;51.074;3.788;2023-05-29T14:36:01;9.70;;;2.08;;
27225;SDS011;14732;51.074;3.788;2023-05-29T14:38:27;7.38;;;1.83;;
27225;SDS011;14732;51.074;3.788;2023-05-29T14:40:53;10.75;;;2.25;;
27225;SDS011;14732;51.074;3.788;2023-05-29T14:43:19;8.27;;;2.03;;
27225;SDS011;14732;51.074;3.788;2023-05-29T14:45:44;7.72;;;2.10;;
27225;SDS011;14732;51.074;3.788;2023-05-29T14:48:10;6.43;;;2.08;;
27225;SDS011;14732;51.074;3.788;2023-05-29T14:50:36;10.00;;;1.98;;
27225;SDS011;14732;51.074;3.788;2023-05-29T14:53:02;8.52;;;1.83;;
27225;SDS011;14732;51.074;3.788;2023-05-29T14:55:28;10.05;;;1.98;;
27225;SDS011;14732;51.074;3.788;2023-05-29T14:57:55;12.68;;;2.15;;
27225;SDS011;14732;51.074;3.788;2023-05-29T15:00:21;11.68;;;2.33;;
27225;SDS011;14732;51.074;3.788;2023-05-29T15:02:47;9.13;;;2.28;;
27225;SDS011;14732;51.074;3.788;2023-05-29T15:05:12;11.75;;;2.58;;
27225;SDS011;14732;51.074;3.788;2023-05-29T15:07:38;13.10;;;2.35;;
27225;SDS011;14732;51.074;3.788;2023-05-29T15:10:03;7.68;;;2.10;;